Time;durP1;ratioP1;P1;durP2;ratioP2;P2;SDS_P1;SDS_P2;PMS_P1;PMS_P2;Temp;Humidity;BMP_temperature;BMP_pressure;BME280_temperature;BME280_humidity;BME280_pressure;Samples;Min_cycle;Max_cycle;Signal;HPM_P1;HPM_P2
2022/02/28 00:01:22;;;;;;;0.73;0.73;;;20.40;36.80;;;;;;5115514;28;20067;-73
2022/02/28 00:03:55;;;;;;;0.68;0.68;;;20.40;36.80;;;;;;5114982;28;20100;-73
2022/02/28 00:06:22;;;;;;;0.68;0.68;;;20.40;36.80;;;;;;5096725;28;20060;-73
2022/02/28 00:08:48;;;;;;;0.65;0.65;;;20.50;36.90;;;;;;5112852;28;20520;-73
2022/02/28 00:11:14;;;;;;;0.68;0.68;;;20.40;36.80;;;;;;5095338;28;20084;-73
2022/02/28 00:13:40;;;;;;;0.88;0.73;;;20.40;36.90;;;;;;5114951;28;20112;-73
2022/02/28 00:16:07;;;;;;;1.23;0.77;;;20.40;36.80;;;;;;5114967;28;20078;-73
2022/02/28 00:18:33;;;;;;;0.70;0.70;;;20.40;36.80;;;;;;5114986;28;20052;-73
2022/02/28 00:21:00;;;;;;;0.95;0.60;;;20.40;36.80;;;;;;5114966;28;20146;-73
2022/02/28 00:23:26;;;;;;;0.73;0.73;;;20.40;36.80;;;;;;5114891;28;20058;-73
2022/02/28 00:25:52;;;;;;;0.93;0.80;;;20.40;36.80;;;;;;5114592;28;20078;-73
2022/02/28 00:28:18;;;;;;;0.88;0.70;;;20.40;36.80;;;;;;5096201;28;20079;-73
2022/02/28 00:30:43;;;;;;;0.60;0.60;;;20.40;36.80;;;;;;5114859;28;20085;-73
2022/02/28 00:33:09;;;;;;;0.60;0.60;;;20.40;36.80;;;;;;5115044;28;20052;-73
2022/02/28 00:35:36;;;;;;;0.88;0.88;;;20.40;36.80;;;;;;5096218;28;20124;-73
2022/02/28 00:38:02;;;;;;;0.70;0.70;;;20.40;36.80;;;;;;5114416;28;20051;-73
2022/02/28 00:40:28;;;;;;;0.80;0.80;;;20.50;36.90;;;;;;5114681;28;20586;-73
2022/02/28 00:42:53;;;;;;;0.95;0.85;;;20.40;36.80;;;;;;5114567;28;20075;-73
2022/02/28 00:45:19;;;;;;;1.38;0.90;;;20.40;36.80;;;;;;5114635;28;20498;-73
2022/02/28 00:47:45;;;;;;;0.80;0.70;;;20.40;36.80;;;;;;5095959;28;20047;-73
2022/02/28 00:50:11;;;;;;;0.80;0.70;;;20.40;36.80;;;;;;5114537;28;20056;-73
2022/02/28 00:52:37;;;;;;;0.68;0.68;;;20.40;36.80;;;;;;5095296;28;20108;-73
2022/02/28 00:55:04;;;;;;;0.70;0.70;;;20.40;36.80;;;;;;5114296;28;20050;-73
2022/02/28 00:57:30;;;;;;;0.80;0.80;;;20.40;36.80;;;;;;5114661;28;20058;-73
2022/02/28 00:59:56;;;;;;;0.95;0.95;;;20.40;36.80;;;;;;5114062;28;20051;-73
2022/02/28 01:02:21;;;;;;;0.60;0.60;;;20.40;36.80;;;;;;5114310;28;20074;-73
2022/02/28 01:04:49;;;;;;;0.70;0.70;;;20.40;36.80;;;;;;5094408;28;20060;-73
2022/02/28 01:07:14;;;;;;;0.70;0.70;;;20.40;36.80;;;;;;5114278;28;20049;-73
2022/02/28 01:09:40;;;;;;;0.75;0.75;;;20.40;36.80;;;;;;5114130;28;20138;-73
2022/02/28 01:12:07;;;;;;;0.70;0.70;;;20.40;36.80;;;;;;5111363;28;20055;-73
2022/02/28 01:14:35;;;;;;;0.60;0.60;;;20.40;36.80;;;;;;5094129;28;20139;-73
2022/02/28 01:17:01;;;;;;;0.90;0.80;;;20.40;36.80;;;;;;5113770;28;20047;-73
2022/02/28 01:19:28;;;;;;;0.73;0.73;;;20.40;36.80;;;;;;5113891;28;20082;-73
2022/02/28 01:21:53;;;;;;;0.88;0.88;;;20.40;36.80;;;;;;5111427;28;20097;-73
2022/02/28 01:24:19;;;;;;;0.60;0.60;;;20.40;36.80;;;;;;5095698;28;20047;-73
2022/02/28 01:26:45;;;;;;;0.73;0.73;;;20.40;36.80;;;;;;5094883;28;20109;-73
2022/02/28 01:29:12;;;;;;;1.00;0.90;;;20.40;36.80;;;;;;5095322;28;20108;-73
2022/02/28 01:31:39;;;;;;;0.70;0.70;;;20.40;36.80;;;;;;5113831;28;20101;-73
2022/02/28 01:34:05;;;;;;;1.27;1.17;;;20.40;36.80;;;;;;5114048;28;20062;-73
2022/02/28 01:36:30;;;;;;;0.70;0.70;;;20.40;36.80;;;;;;5113534;28;20440;-73
2022/02/28 01:38:56;;;;;;;0.82;0.73;;;20.40;36.80;;;;;;5112781;28;20052;-73
2022/02/28 01:41:22;;;;;;;0.70;0.70;;;20.40;36.80;;;;;;5111961;28;20414;-73
2022/02/28 01:43:48;;;;;;;0.80;0.80;;;20.40;36.80;;;;;;5094659;28;20164;-73
2022/02/28 01:46:13;;;;;;;0.82;0.82;;;20.40;36.80;;;;;;5113780;28;20052;-73
2022/02/28 01:48:39;;;;;;;0.70;0.70;;;20.40;36.80;;;;;;5113431;28;20056;-73
2022/02/28 01:51:05;;;;;;;0.98;0.88;;;20.40;36.80;;;;;;5113801;28;20052;-73
2022/02/28 01:53:31;;;;;;;0.80;0.80;;;20.40;36.80;;;;;;5095108;28;20197;-73
2022/02/28 01:55:56;;;;;;;0.80;0.80;;;20.40;36.80;;;;;;5095288;28;20109;-73
2022/02/28 01:58:22;;;;;;;0.90;0.88;;;20.40;36.80;;;;;;5094320;28;20097;-73
2022/02/28 02:00:47;;;;;;;0.80;0.77;;;20.50;36.80;;;;;;5095035;28;20055;-73
2022/02/28 02:03:13;;;;;;;0.90;0.90;;;20.40;36.70;;;;;;5112635;28;20055;-73
2022/02/28 02:05:39;;;;;;;0.80;0.80;;;20.40;36.80;;;;;;5095232;28;20142;-73
2022/02/28 02:08:08;;;;;;;1.00;0.93;;;20.40;36.80;;;;;;5113151;28;20548;-73
2022/02/28 02:10:36;;;;;;;0.90;0.90;;;20.40;36.80;;;;;;5095154;28;20047;-73
2022/02/28 02:13:02;;;;;;;0.80;0.80;;;20.40;36.80;;;;;;5094886;28;20488;-73
2022/02/28 02:15:29;;;;;;;0.88;0.82;;;20.40;36.80;;;;;;5094748;28;20138;-73
2022/02/28 02:17:57;;;;;;;0.63;0.63;;;20.40;36.70;;;;;;5077150;28;20615;-73
2022/02/28 02:20:23;;;;;;;0.85;0.85;;;20.40;36.80;;;;;;5112836;28;20158;-73
2022/02/28 02:22:59;;;;;;;0.70;0.70;;;20.40;36.70;;;;;;5094865;28;20531;-73
2022/02/28 02:25:25;;;;;;;1.25;0.85;;;20.40;36.70;;;;;;5112988;28;20046;-73
2022/02/28 02:27:52;;;;;;;0.68;0.68;;;20.40;36.70;;;;;;5111965;28;20047;-73
2022/02/28 02:30:18;;;;;;;0.95;0.88;;;20.40;36.70;;;;;;5094591;28;20047;-73
2022/02/28 02:32:45;;;;;;;0.60;0.60;;;20.40;36.70;;;;;;5094587;28;20056;-73
2022/02/28 02:35:13;;;;;;;1.05;0.95;;;20.40;36.70;;;;;;5094537;28;20096;-73
2022/02/28 02:37:39;;;;;;;0.63;0.63;;;20.40;36.70;;;;;;5094568;28;20043;-73
2022/02/28 02:40:05;;;;;;;0.73;0.70;;;20.40;36.70;;;;;;5094464;28;20047;-73
2022/02/28 02:42:31;;;;;;;0.88;0.88;;;20.40;36.70;;;;;;5111354;28;20410;-73
2022/02/28 02:44:57;;;;;;;0.70;0.70;;;20.40;36.70;;;;;;5095010;28;20044;-73
2022/02/28 02:47:22;;;;;;;0.80;0.80;;;20.40;36.70;;;;;;5094534;28;20487;-73
2022/02/28 02:50:03;;;;;;;0.70;0.70;;;20.50;36.80;;;;;;5096037;28;20056;-73
2022/02/28 02:52:29;;;;;;;1.00;0.90;;;20.40;36.70;;;;;;5097460;28;20059;-73
2022/02/28 02:54:55;;;;;;;0.85;0.80;;;20.40;36.70;;;;;;5096725;28;20048;-73
2022/02/28 02:57:24;;;;;;;1.02;0.70;;;20.40;36.80;;;;;;5097963;28;20446;-73
2022/02/28 02:59:50;;;;;;;0.63;0.60;;;20.40;36.70;;;;;;5095862;28;20109;-73
2022/02/28 03:02:16;;;;;;;1.27;1.00;;;20.50;36.70;;;;;;5097783;28;20063;-73
2022/02/28 03:04:42;;;;;;;1.35;1.25;;;20.40;36.70;;;;;;5116487;28;20041;-73
2022/02/28 03:07:19;;;;;;;0.70;0.70;;;20.50;36.70;;;;;;5097895;28;20048;-73
2022/02/28 03:09:46;;;;;;;0.90;0.90;;;20.50;36.70;;;;;;5097754;28;20056;-73
2022/02/28 03:12:13;;;;;;;0.98;0.80;;;20.50;36.70;;;;;;5097943;28;20185;-73
2022/02/28 03:14:39;;;;;;;0.80;0.80;;;20.50;36.70;;;;;;5114671;28;20130;-73
2022/02/28 03:17:05;;;;;;;0.80;0.80;;;20.50;36.60;;;;;;5095343;28;20084;-73
2022/02/28 03:19:32;;;;;;;0.63;0.63;;;20.50;36.60;;;;;;5097374;28;20468;-73
2022/02/28 03:21:58;;;;;;;0.75;0.75;;;20.60;36.70;;;;;;5096442;28;20098;-73
2022/02/28 03:24:24;;;;;;;0.93;0.93;;;20.60;36.60;;;;;;5097811;28;20425;-73
2022/02/28 03:26:50;;;;;;;0.93;0.85;;;20.60;36.60;;;;;;5097444;28;20062;-73
2022/02/28 03:29:17;;;;;;;0.70;0.70;;;20.60;36.60;;;;;;5097684;28;20070;-73
2022/02/28 03:31:43;;;;;;;1.00;0.90;;;20.60;36.60;;;;;;5115708;28;20483;-73
2022/02/28 03:34:10;;;;;;;0.73;0.73;;;20.60;37.10;;;;;;5097256;28;20043;-73
2022/02/28 03:36:36;;;;;;;0.77;0.77;;;20.60;36.60;;;;;;5097228;28;20051;-73
2022/02/28 03:39:11;;;;;;;0.80;0.80;;;20.60;36.60;;;;;;5097425;28;20043;-73
2022/02/28 03:41:37;;;;;;;0.80;0.80;;;20.60;36.50;;;;;;5097150;28;20051;-73
2022/02/28 03:44:03;;;;;;;0.90;0.80;;;20.60;36.50;;;;;;5096570;28;20044;-73
2022/02/28 03:46:32;;;;;;;0.88;0.88;;;20.60;36.50;;;;;;5115292;28;20051;-73
2022/02/28 03:49:35;;;;;;;0.93;0.82;;;20.60;36.50;;;;;;5115270;28;20076;-73
2022/02/28 03:52:08;;;;;;;0.90;0.90;;;20.60;36.50;;;;;;5097400;28;20062;-73
2022/02/28 03:54:53;;;;;;;1.00;0.90;;;20.60;36.50;;;;;;5096992;28;20054;-73
2022/02/28 03:57:19;;;;;;;1.00;0.90;;;20.60;36.40;;;;;;5095631;28;20044;-73
2022/02/28 03:59:46;;;;;;;0.82;0.82;;;20.60;36.40;;;;;;5097328;28;20079;-73
2022/02/28 04:02:12;;;;;;;1.00;0.90;;;20.60;36.40;;;;;;5113520;28;20055;-73
2022/02/28 04:04:42;;;;;;;1.17;1.08;;;20.70;36.50;;;;;;5097510;28;20410;-73
2022/02/28 04:07:09;;;;;;;1.02;0.82;;;20.60;36.40;;;;;;5114732;28;20059;-73
2022/02/28 04:09:36;;;;;;;0.80;0.80;;;20.70;36.50;;;;;;5095559;28;20492;-73
2022/02/28 04:12:04;;;;;;;1.00;0.90;;;20.70;36.50;;;;;;5096832;28;20403;-73
2022/02/28 04:14:30;;;;;;;1.10;1.00;;;20.60;36.40;;;;;;5096513;28;20076;-73
2022/02/28 04:16:56;;;;;;;1.00;1.00;;;20.70;36.50;;;;;;5096445;28;20884;-73
2022/02/28 04:19:40;;;;;;;0.88;0.80;;;20.70;36.50;;;;;;5115013;28;20433;-73
2022/02/28 04:22:07;;;;;;;0.80;0.80;;;20.60;36.40;;;;;;5096677;28;20445;-73
2022/02/28 04:24:37;;;;;;;;;;;20.60;36.40;;;;;;5097709;28;20059;-73
2022/02/28 04:27:03;;;;;;;0.80;0.80;;;20.70;36.50;;;;;;5097180;28;19915;-73
2022/02/28 04:29:29;;;;;;;0.82;0.82;;;20.70;36.50;;;;;;5113735;28;20055;-73
2022/02/28 04:32:04;;;;;;;0.90;0.90;;;20.70;36.50;;;;;;5113774;28;20407;-73
2022/02/28 04:34:33;;;;;;;0.93;0.80;;;20.60;36.40;;;;;;5094325;28;20044;-73
2022/02/28 04:37:00;;;;;;;1.30;1.00;;;20.60;36.40;;;;;;5096391;28;20089;-73
2022/02/28 04:39:26;;;;;;;1.20;1.00;;;20.60;36.40;;;;;;5096242;28;20057;-73
2022/02/28 04:41:51;;;;;;;0.93;0.82;;;20.60;36.40;;;;;;5094887;28;20052;-73
2022/02/28 04:44:17;;;;;;;0.73;0.73;;;20.60;36.40;;;;;;5096159;28;20043;-73
2022/02/28 04:46:43;;;;;;;0.90;0.90;;;20.60;36.40;;;;;;5095899;28;20055;-73
2022/02/28 04:49:31;;;;;;;1.02;1.00;;;20.60;36.40;;;;;;5114267;28;20080;-73
2022/02/28 04:51:58;;;;;;;0.90;0.90;;;20.60;36.40;;;;;;5114422;28;20126;-73
2022/02/28 04:54:23;;;;;;;1.00;1.00;;;20.60;36.40;;;;;;5096621;28;20444;-73
2022/02/28 04:56:50;;;;;;;1.02;0.93;;;20.60;36.40;;;;;;5095838;28;20055;-73
2022/02/28 04:59:16;;;;;;;1.08;0.98;;;20.60;36.50;;;;;;5095291;28;20052;-73
2022/02/28 05:01:52;;;;;;;0.80;0.80;;;20.60;36.40;;;;;;5095966;28;20158;-73
2022/02/28 05:04:43;;;;;;;1.10;1.08;;;20.60;36.40;;;;;;5096300;28;20063;-73
2022/02/28 05:07:10;;;;;;;0.90;0.90;;;20.60;36.40;;;;;;5093896;28;20048;-73
2022/02/28 05:09:35;;;;;;;1.17;1.08;;;20.60;36.40;;;;;;5095415;28;20056;-73
2022/02/28 05:12:03;;;;;;;1.17;1.08;;;20.60;36.40;;;;;;5095629;28;20514;-73
2022/02/28 05:14:30;;;;;;;1.08;0.98;;;20.60;36.40;;;;;;5094111;28;20052;-73
2022/02/28 05:16:56;;;;;;;1.20;1.10;;;20.60;36.40;;;;;;5094159;28;20062;-73
2022/02/28 05:19:22;;;;;;;0.80;0.80;;;20.60;36.40;;;;;;5095552;28;20510;-73
2022/02/28 05:21:48;;;;;;;0.90;0.90;;;20.60;36.40;;;;;;5094872;28;20051;-73
2022/02/28 05:24:15;;;;;;;0.80;0.80;;;20.60;36.40;;;;;;5095698;28;20113;-73
2022/02/28 05:26:42;;;;;;;1.20;1.10;;;20.60;36.40;;;;;;5095555;28;20055;-73
2022/02/28 05:29:10;;;;;;;0.98;0.98;;;20.60;36.40;;;;;;5095558;28;20061;-73
2022/02/28 05:31:36;;;;;;;0.90;0.90;;;20.60;36.40;;;;;;5095502;28;20068;-73
2022/02/28 05:34:37;;;;;;;1.05;1.00;;;20.60;36.40;;;;;;5086004;28;20051;-73
2022/02/28 05:37:04;;;;;;;1.23;1.10;;;20.60;36.40;;;;;;5094893;28;20513;-73
2022/02/28 05:39:45;;;;;;;0.88;0.80;;;20.60;36.40;;;;;;5095564;28;20051;-73
2022/02/28 05:42:16;;;;;;;1.00;1.00;;;20.60;36.50;;;;;;5095447;28;20056;-73
2022/02/28 05:44:43;;;;;;;1.15;1.00;;;20.60;36.40;;;;;;5095429;28;20035;-73
2022/02/28 05:47:09;;;;;;;1.00;0.90;;;20.60;36.50;;;;;;5095222;28;20097;-73
2022/02/28 05:49:37;;;;;;;1.10;1.00;;;20.70;36.50;;;;;;5094777;28;20044;-73
2022/02/28 05:52:03;;;;;;;1.10;0.82;;;20.60;36.50;;;;;;5113491;28;20055;-73
2022/02/28 05:54:29;;;;;;;1.27;1.00;;;20.60;36.40;;;;;;5095127;28;20054;-74
2022/02/28 05:56:54;;;;;;;1.20;1.10;;;20.60;36.40;;;;;;5113345;28;20060;-73
2022/02/28 05:59:20;;;;;;;1.20;1.02;;;20.60;36.40;;;;;;5113401;28;20051;-73
2022/02/28 06:01:46;;;;;;;1.13;1.02;;;20.60;36.40;;;;;;5113346;28;20082;-73
2022/02/28 06:04:13;;;;;;;1.23;1.13;;;20.60;36.40;;;;;;5113325;28;20483;-74
2022/02/28 06:06:40;;;;;;;1.13;1.02;;;20.60;36.40;;;;;;5094787;28;20051;-74
2022/02/28 06:09:06;;;;;;;1.15;1.05;;;20.60;36.40;;;;;;5113322;28;20056;-73
2022/02/28 06:11:32;;;;;;;0.90;0.90;;;20.60;36.40;;;;;;5113439;28;20384;-72
2022/02/28 06:13:58;;;;;;;1.40;1.30;;;20.60;36.40;;;;;;5094225;28;20055;-73
2022/02/28 06:16:24;;;;;;;1.27;1.17;;;20.60;36.30;;;;;;5110527;28;20484;-73
2022/02/28 06:18:50;;;;;;;1.38;1.10;;;20.60;36.30;;;;;;5113032;28;20138;-73
2022/02/28 06:21:15;;;;;;;1.20;1.00;;;20.70;36.30;;;;;;5113172;28;20093;-73
2022/02/28 06:23:42;;;;;;;1.20;1.10;;;20.70;36.30;;;;;;5110257;28;20138;-73
2022/02/28 06:26:09;;;;;;;1.58;1.20;;;20.70;36.30;;;;;;5092863;28;20059;-73
2022/02/28 06:28:34;;;;;;;1.27;1.15;;;20.70;36.20;;;;;;5094271;28;20063;-73
2022/02/28 06:31:00;;;;;;;1.30;1.20;;;20.70;36.20;;;;;;5113152;28;20187;-73
2022/02/28 06:33:26;;;;;;;1.67;1.45;;;20.80;36.20;;;;;;5111843;28;20477;-73
2022/02/28 06:35:52;;;;;;;1.65;1.55;;;20.80;36.10;;;;;;5112757;28;20046;-73
2022/02/28 06:38:19;;;;;;;1.73;1.38;;;20.80;36.00;;;;;;5112851;28;20044;-73
2022/02/28 06:40:46;;;;;;;1.25;1.15;;;20.90;36.00;;;;;;5112551;28;20499;-73
2022/02/28 06:43:12;;;;;;;1.88;1.20;;;20.90;36.00;;;;;;5112788;28;20081;-73
2022/02/28 06:45:39;;;;;;;1.55;1.30;;;20.90;35.90;;;;;;5112676;28;20468;-73
2022/02/28 06:48:05;;;;;;;1.60;1.20;;;20.90;35.90;;;;;;5094260;28;20376;-73
2022/02/28 06:50:30;;;;;;;1.50;1.40;;;20.90;35.80;;;;;;5112446;28;20069;-73
2022/02/28 06:52:56;;;;;;;1.40;1.30;;;20.90;35.80;;;;;;5111257;28;20052;-73
2022/02/28 06:55:21;;;;;;;1.20;1.10;;;20.90;35.90;;;;;;5094182;28;20050;-73
2022/02/28 06:57:47;;;;;;;1.45;1.35;;;20.90;35.80;;;;;;5112509;28;20053;-73
2022/02/28 07:00:13;;;;;;;1.27;1.17;;;20.90;35.80;;;;;;5112442;28;20086;-73
2022/02/28 07:03:14;;;;;;;1.40;1.30;;;20.90;35.80;;;;;;5049770;28;20045;-73
2022/02/28 07:05:41;;;;;;;1.10;1.00;;;21.00;35.80;;;;;;5098975;28;20055;-73
2022/02/28 07:08:08;;;;;;;1.40;1.30;;;21.00;35.80;;;;;;5112396;28;20384;-73
2022/02/28 07:10:34;;;;;;;1.90;1.33;;;21.00;35.70;;;;;;5112643;28;20063;-73
2022/02/28 07:13:00;;;;;;;1.50;1.30;;;21.00;35.70;;;;;;5111094;28;20052;-73
2022/02/28 07:15:26;;;;;;;1.05;0.98;;;21.10;35.70;;;;;;5112286;28;20040;-73
2022/02/28 07:17:52;;;;;;;1.75;1.30;;;21.00;35.70;;;;;;5112256;28;20052;-73
2022/02/28 07:20:18;;;;;;;1.50;1.40;;;21.00;35.70;;;;;;5112328;28;20063;-73
2022/02/28 07:22:44;;;;;;;1.33;1.23;;;21.00;35.70;;;;;;5109231;28;20056;-73
2022/02/28 07:25:09;;;;;;;1.38;1.23;;;21.00;35.80;;;;;;5112262;28;20047;-73
2022/02/28 07:27:35;;;;;;;1.50;1.40;;;21.00;35.80;;;;;;5112071;28;20069;-73
2022/02/28 07:30:01;;;;;;;1.52;1.30;;;21.00;35.80;;;;;;5112102;28;20123;-73
2022/02/28 07:32:26;;;;;;;1.85;1.40;;;21.00;35.80;;;;;;5111310;28;20502;-73
2022/02/28 07:34:52;;;;;;;1.30;1.20;;;21.00;35.80;;;;;;5112061;28;20477;-73
2022/02/28 07:37:17;;;;;;;1.25;1.15;;;21.00;35.80;;;;;;5114069;28;20048;-73
2022/02/28 07:39:43;;;;;;;2.10;1.67;;;21.00;35.80;;;;;;5097071;28;20058;-73
2022/02/28 07:42:08;;;;;;;2.10;1.65;;;21.00;35.80;;;;;;5114338;28;20052;-73
2022/02/28 07:44:34;;;;;;;1.40;1.30;;;21.00;35.70;;;;;;5115305;28;20054;-73
2022/02/28 07:46:59;;;;;;;1.38;1.27;;;21.00;35.70;;;;;;5115283;28;20130;-73
2022/02/28 07:49:32;;;;;;;1.80;1.58;;;21.10;35.70;;;;;;5115330;28;20870;-73
2022/02/28 07:51:58;;;;;;;1.42;1.27;;;21.10;35.70;;;;;;5113864;28;20419;-73
2022/02/28 07:54:23;;;;;;;1.70;1.55;;;21.10;35.70;;;;;;5114973;28;20048;-73
2022/02/28 07:56:49;;;;;;;1.58;1.48;;;21.10;35.60;;;;;;5115086;28;20051;-73
2022/02/28 07:59:15;;;;;;;1.83;1.70;;;21.10;35.60;;;;;;5115345;28;20051;-73
2022/02/28 08:01:41;;;;;;;1.50;1.38;;;21.10;35.60;;;;;;5115126;28;20061;-73
2022/02/28 08:04:07;;;;;;;1.13;1.02;;;21.10;35.60;;;;;;5096824;28;20043;-73
2022/02/28 08:06:32;;;;;;;1.40;1.20;;;21.20;35.60;;;;;;5096916;28;20108;-73
2022/02/28 08:08:58;;;;;;;1.55;1.45;;;21.20;35.50;;;;;;5114991;28;20055;-73
2022/02/28 08:11:23;;;;;;;1.80;1.70;;;21.20;35.50;;;;;;5111985;28;20056;-73
2022/02/28 08:13:49;;;;;;;2.15;1.48;;;21.30;35.40;;;;;;5114701;28;20079;-73
2022/02/28 08:16:15;;;;;;;1.58;1.48;;;21.30;35.40;;;;;;5115332;28;20090;-73
2022/02/28 08:18:42;;;;;;;1.40;1.30;;;21.20;36.00;;;;;;5114627;28;20078;-73
2022/02/28 08:21:07;;;;;;;1.50;1.38;;;21.20;35.40;;;;;;5114790;28;20047;-73
2022/02/28 08:23:33;;;;;;;1.38;1.27;;;21.20;35.50;;;;;;5115061;28;20131;-73
2022/02/28 08:25:59;;;;;;;2.47;1.60;;;21.20;35.50;;;;;;5114836;28;20449;-73
2022/02/28 08:28:24;;;;;;;1.67;1.50;;;21.20;35.50;;;;;;5115045;28;20039;-73
2022/02/28 08:30:50;;;;;;;1.60;1.50;;;21.20;35.50;;;;;;5114499;28;20063;-73
2022/02/28 08:33:16;;;;;;;1.50;1.40;;;21.20;35.50;;;;;;5114523;28;20083;-73
2022/02/28 08:35:41;;;;;;;1.63;1.50;;;21.20;35.50;;;;;;5113156;28;20082;-73
2022/02/28 08:38:07;;;;;;;1.60;1.50;;;21.20;35.50;;;;;;5095482;28;20058;-73
2022/02/28 08:40:33;;;;;;;1.48;1.20;;;21.20;35.50;;;;;;5114537;28;20044;-73
2022/02/28 08:42:59;;;;;;;1.63;1.45;;;21.20;35.40;;;;;;5095795;28;20063;-73
2022/02/28 08:45:24;;;;;;;2.42;1.52;;;21.20;35.40;;;;;;5095740;28;20146;-73
2022/02/28 08:47:50;;;;;;;1.60;1.50;;;21.20;35.50;;;;;;5113603;28;20055;-73
2022/02/28 08:50:16;;;;;;;1.52;1.40;;;21.20;35.50;;;;;;5093213;28;20399;-73
2022/02/28 08:52:43;;;;;;;1.77;1.65;;;21.20;35.50;;;;;;5114411;28;20044;-73
2022/02/28 08:55:09;;;;;;;1.50;1.40;;;21.20;35.50;;;;;;5114175;28;20082;-73
2022/02/28 08:57:36;;;;;;;2.13;1.70;;;21.20;35.50;;;;;;5113900;28;20087;-73
2022/02/28 09:00:07;;;;;;;2.10;1.60;;;21.20;35.50;;;;;;5114478;28;20529;-73
2022/02/28 09:02:33;;;;;;;2.05;1.75;;;21.20;35.50;;;;;;5094497;28;20060;-73
2022/02/28 09:04:59;;;;;;;1.65;1.55;;;21.20;36.00;;;;;;5114276;28;20059;-73
2022/02/28 09:07:24;;;;;;;1.70;1.60;;;21.20;35.50;;;;;;5114032;28;20499;-74
2022/02/28 09:09:50;;;;;;;1.48;1.38;;;21.20;35.40;;;;;;5114049;28;20559;-74
2022/02/28 09:12:15;;;;;;;1.48;1.38;;;21.20;35.50;;;;;;5112961;28;20074;-74
2022/02/28 09:14:41;;;;;;;2.03;1.63;;;21.20;35.50;;;;;;5095514;28;20394;-74
2022/02/28 09:17:07;;;;;;;1.65;1.55;;;21.20;35.50;;;;;;5113861;28;20051;-74
2022/02/28 09:19:33;;;;;;;1.38;1.27;;;21.20;35.50;;;;;;5113830;28;20055;-74
2022/02/28 09:21:58;;;;;;;2.40;1.50;;;21.20;35.60;;;;;;5113955;28;20407;-74
2022/02/28 09:24:24;;;;;;;1.77;1.52;;;21.10;35.50;;;;;;5113852;28;20055;-74
2022/02/28 09:26:50;;;;;;;2.22;1.65;;;21.10;35.60;;;;;;5095494;28;20407;-74
2022/02/28 09:29:16;;;;;;;1.70;1.52;;;21.10;35.50;;;;;;5093221;28;20073;-74
2022/02/28 09:31:43;;;;;;;1.73;1.50;;;21.20;35.60;;;;;;5095712;28;20065;-74
2022/02/28 09:34:09;;;;;;;1.83;1.65;;;21.20;35.60;;;;;;5111332;28;20051;-74
2022/02/28 09:36:35;;;;;;;1.50;1.40;;;21.20;35.60;;;;;;5113812;28;20051;-74
2022/02/28 09:39:02;;;;;;;1.45;1.35;;;21.10;35.50;;;;;;5094921;28;20052;-74
2022/02/28 09:41:36;;;;;;;2.67;1.65;;;21.20;35.60;;;;;;5094718;28;20051;-74
2022/02/28 09:44:21;;;;;;;1.50;1.40;;;21.10;35.50;;;;;;5112983;28;20039;-74
2022/02/28 09:47:22;;;;;;;1.85;1.60;;;21.20;35.60;;;;;;5050612;28;20057;-74
2022/02/28 09:50:06;;;;;;;2.05;1.63;;;21.10;35.50;;;;;;5108486;28;20055;-74
2022/02/28 09:52:54;;;;;;;1.85;1.50;;;21.10;35.50;;;;;;5113306;28;20048;-74
2022/02/28 09:55:50;;;;;;;1.63;1.52;;;21.10;35.50;;;;;;5095547;28;20039;-74
2022/02/28 09:58:35;;;;;;;1.58;1.48;;;21.10;35.60;;;;;;5098496;28;20384;-74
2022/02/28 10:01:02;;;;;;;2.13;1.55;;;21.10;35.60;;;;;;5094564;28;20633;-74
2022/02/28 10:03:30;;;;;;;1.60;1.50;;;21.10;35.60;;;;;;5094898;28;20504;-74
2022/02/28 10:06:01;;;;;;;1.73;1.55;;;21.10;35.60;;;;;;5095442;28;20083;-74
2022/02/28 10:08:38;;;;;;;1.80;1.70;;;21.10;35.60;;;;;;5113388;28;20138;-74
2022/02/28 10:11:05;;;;;;;1.65;1.40;;;21.10;35.60;;;;;;5113205;28;20046;-73
2022/02/28 10:13:32;;;;;;;2.05;1.80;;;21.10;35.60;;;;;;5113072;28;20047;-74
2022/02/28 10:15:58;;;;;;;1.80;1.67;;;21.10;35.60;;;;;;5112990;28;20096;-74
2022/02/28 10:18:26;;;;;;;1.73;1.60;;;21.10;35.60;;;;;;5113421;28;20134;-74
2022/02/28 10:20:52;;;;;;;1.73;1.63;;;21.10;35.60;;;;;;5112834;28;20071;-74
2022/02/28 10:23:17;;;;;;;2.20;1.80;;;21.10;35.60;;;;;;5111650;28;20480;-74
2022/02/28 10:26:00;;;;;;;1.77;1.65;;;21.10;35.60;;;;;;5095268;28;20142;-74
2022/02/28 10:29:10;;;;;;;1.73;1.60;;;21.10;35.50;;;;;;5112677;28;20055;-74
2022/02/28 10:32:00;;;;;;;1.75;1.63;;;21.10;35.50;;;;;;5112889;28;20059;-74
2022/02/28 10:37:56;;;;;;;2.47;1.95;;;21.10;35.50;;;;;;5094637;28;20044;-74
2022/02/28 10:40:32;;;;;;;2.85;2.00;;;21.10;35.50;;;;;;5112668;28;20384;-74
2022/02/28 10:42:57;;;;;;;2.53;1.55;;;21.10;35.50;;;;;;5112867;28;20123;-74
2022/02/28 10:45:25;;;;;;;1.88;1.55;;;21.10;35.50;;;;;;5113284;28;20462;-74
2022/02/28 10:47:53;;;;;;;2.22;1.73;;;21.10;35.40;;;;;;5112698;28;20412;-74
2022/02/28 10:50:37;;;;;;;2.05;1.80;;;21.10;35.40;;;;;;5112746;28;20076;-74
2022/02/28 10:53:04;;;;;;;2.10;1.90;;;21.10;35.40;;;;;;5112633;28;20421;-74
2022/02/28 10:55:31;;;;;;;1.80;1.70;;;21.10;35.40;;;;;;5094278;28;20047;-74
2022/02/28 10:58:11;;;;;;;2.08;1.88;;;21.10;35.40;;;;;;5077454;28;20155;-74
2022/02/28 11:00:50;;;;;;;1.83;1.67;;;21.10;35.50;;;;;;5112748;28;20127;-74
2022/02/28 11:03:16;;;;;;;1.98;1.77;;;21.10;35.40;;;;;;5112565;28;20122;-74
2022/02/28 11:06:09;;;;;;;2.03;1.80;;;21.10;35.40;;;;;;5112528;28;20039;-74
2022/02/28 11:08:43;;;;;;;2.65;1.80;;;21.10;35.40;;;;;;5107672;28;20052;-74
2022/02/28 11:11:11;;;;;;;2.10;1.90;;;21.10;35.40;;;;;;5095367;28;20899;-74
2022/02/28 11:13:37;;;;;;;1.77;1.65;;;21.10;35.40;;;;;;5114105;28;20048;-74
2022/02/28 11:16:03;;;;;;;2.33;1.95;;;21.10;35.40;;;;;;5116251;28;20060;-74
2022/02/28 11:18:29;;;;;;;2.25;1.77;;;21.10;35.40;;;;;;5097232;28;20138;-74
2022/02/28 11:20:55;;;;;;;2.10;1.88;;;21.20;35.50;;;;;;5116207;28;20456;-74
2022/02/28 11:23:22;;;;;;;2.08;1.83;;;21.10;35.40;;;;;;5115679;28;20134;-74
2022/02/28 11:25:48;;;;;;;2.10;1.92;;;21.10;35.40;;;;;;5115829;28;20120;-74
2022/02/28 11:28:16;;;;;;;2.20;2.00;;;21.10;35.40;;;;;;5080411;28;20043;-74
2022/02/28 11:30:42;;;;;;;2.65;1.88;;;21.10;35.50;;;;;;5097363;28;20091;-74
2022/02/28 11:33:12;;;;;;;1.88;1.73;;;21.10;35.40;;;;;;5080444;28;20047;-74
2022/02/28 11:35:38;;;;;;;2.00;1.73;;;21.10;35.40;;;;;;5097311;28;20043;-74
2022/02/28 11:38:17;;;;;;;2.17;1.98;;;21.10;35.40;;;;;;5115562;28;20048;-74
2022/02/28 11:40:47;;;;;;;2.83;2.13;;;21.10;35.90;;;;;;5097470;28;20050;-74
2022/02/28 11:43:24;;;;;;;2.38;2.17;;;21.10;35.40;;;;;;5115516;28;20419;-74
2022/02/28 11:46:00;;;;;;;1.83;1.67;;;21.20;35.40;;;;;;5115273;28;20055;-74
2022/02/28 11:48:29;;;;;;;2.28;2.03;;;21.10;35.40;;;;;;5115357;28;20387;-74
2022/02/28 11:51:01;;;;;;;2.50;2.20;;;21.10;35.40;;;;;;5115626;28;20062;-75
2022/02/28 11:53:46;;;;;;;2.25;2.05;;;21.10;35.40;;;;;;5115400;28;20051;-74
2022/02/28 11:56:19;;;;;;;2.15;1.95;;;21.10;35.40;;;;;;5109059;28;20043;-74
2022/02/28 11:59:05;;;;;;;1.95;1.77;;;21.10;35.40;;;;;;5114213;28;20532;-74
2022/02/28 12:01:32;;;;;;;2.05;1.85;;;21.10;35.40;;;;;;5115099;28;20058;-74
2022/02/28 12:04:06;;;;;;;2.25;2.05;;;21.10;35.40;;;;;;5114725;28;20060;-74
2022/02/28 12:06:51;;;;;;;2.25;2.05;;;21.10;35.40;;;;;;5096405;28;20144;-74
2022/02/28 12:09:37;;;;;;;2.13;1.92;;;21.10;35.40;;;;;;5114976;28;20139;-74
2022/02/28 12:12:16;;;;;;;2.10;1.90;;;21.10;35.40;;;;;;5115402;28;20070;-74
2022/02/28 12:15:00;;;;;;;2.20;2.00;;;21.10;35.40;;;;;;5114677;28;20047;-74
2022/02/28 12:17:50;;;;;;;1.77;1.67;;;21.10;35.40;;;;;;5115624;28;20059;-74
2022/02/28 12:20:18;;;;;;;2.28;1.90;;;21.10;35.40;;;;;;5114776;28;20596;-74
2022/02/28 12:22:55;;;;;;;2.20;2.00;;;21.10;35.40;;;;;;5114636;28;20083;-74
2022/02/28 12:25:46;;;;;;;2.17;1.98;;;21.10;35.40;;;;;;5114975;28;20048;-74
2022/02/28 12:28:31;;;;;;;;;;;21.10;35.40;;;;;;5115197;28;20484;-74
2022/02/28 12:31:00;;;;;;;2.47;1.90;;;21.10;35.40;;;;;;5094556;28;19932;-74
2022/02/28 12:33:35;;;;;;;2.63;2.20;;;21.10;35.40;;;;;;5096616;28;20051;-74
2022/02/28 12:36:03;;;;;;;3.95;2.05;;;21.10;35.50;;;;;;5115296;28;20068;-74
2022/02/28 12:38:31;;;;;;;2.25;2.05;;;21.10;35.40;;;;;;5113183;28;20056;-74
2022/02/28 12:41:24;;;;;;;3.17;2.13;;;21.10;35.40;;;;;;5114625;28;20512;-74
2022/02/28 12:43:52;;;;;;;2.90;2.20;;;21.10;35.40;;;;;;5111138;28;20402;-74
2022/02/28 12:46:23;;;;;;;2.53;2.25;;;21.10;35.40;;;;;;5114465;28;20060;-74
2022/02/28 12:48:49;;;;;;;;;;;21.10;35.50;;;;;;5115148;28;20138;-74
2022/02/28 12:51:20;;;;;;;2.42;2.03;;;21.10;35.50;;;;;;5096602;28;19943;-74
2022/02/28 12:53:46;;;;;;;3.08;2.35;;;21.10;35.40;;;;;;5114335;28;20402;-74
2022/02/28 12:56:14;;;;;;;2.30;2.10;;;21.10;35.40;;;;;;5114296;28;20059;-74
2022/02/28 12:58:44;;;;;;;2.22;2.00;;;21.10;35.40;;;;;;5114391;28;20059;-74
2022/02/28 13:01:24;;;;;;;2.40;2.20;;;21.10;35.40;;;;;;5114225;28;20510;-74